Time;durP1;ratioP1;P1;durP2;ratioP2;P2;SDS_P1;SDS_P2;PMS_P1;PMS_P2;Temp;Humidity;BMP_temperature;BMP_pressure;BME280_temperature;BME280_humidity;BME280_pressure;Samples;Min_cycle;Max_cycle;Signal;HPM_P1;HPM_P2
2023/03/27 04:32:18;;;;;;;18.58;7.70;;;;;;;9.07;92.63;95934.41;2866893;28;22572;-77
2023/03/27 04:34:49;;;;;;;20.40;8.88;;;;;;;9.17;92.36;95919.31;4984326;28;20121;-78
2023/03/27 04:37:14;;;;;;;21.52;7.68;;;;;;;9.39;91.75;95928.22;4975088;28;20045;-78
2023/03/27 04:39:42;;;;;;;7.35;3.50;;;;;;;9.60;75.79;95881.03;4974877;28;20449;-81
2023/03/27 04:42:09;;;;;;;3.90;1.73;;;;;;;10.45;63.05;95861.16;4991714;28;20026;-84
2023/03/27 04:44:35;;;;;;;4.00;1.40;;;;;;;11.38;55.94;95841.00;4971578;28;20516;-78
2023/03/27 04:47:01;;;;;;;4.45;1.73;;;;;;;11.93;54.40;95839.38;4983566;28;20040;-88
2023/03/27 04:49:37;;;;;;;2.45;1.20;;;;;;;12.30;51.96;95823.34;4980182;28;20188;-85
2023/03/27 04:52:04;;;;;;;4.60;1.65;;;;;;;12.54;50.93;95824.63;4977367;28;20037;-81
2023/03/27 04:54:30;;;;;;;2.97;1.25;;;;;;;12.66;49.87;95810.88;4974621;28;20428;-84
2023/03/27 04:56:56;;;;;;;0.93;0.80;;;;;;;12.83;48.66;95809.19;4993471;28;20024;-82
2023/03/27 04:59:21;;;;;;;6.90;3.22;;;;;;;12.91;49.28;95806.59;4977276;28;20022;-83
2023/03/27 05:01:49;;;;;;;9.25;4.63;;;;;;;12.97;49.19;95797.94;4974899;28;20037;-83
2023/03/27 05:04:15;;;;;;;3.70;2.30;;;;;;;12.93;48.69;95788.50;4978251;28;20413;-82
2023/03/27 05:06:41;;;;;;;3.30;2.08;;;;;;;12.88;49.68;95790.81;4973152;28;20156;-82
2023/03/27 05:09:07;;;;;;;7.97;2.50;;;;;;;12.81;51.19;95805.81;4977721;28;20030;-82
2023/03/27 05:11:33;;;;;;;2.50;1.88;;;;;;;12.54;52.43;95803.16;4976317;28;20482;-82
2023/03/27 05:13:59;;;;;;;6.68;2.22;;;;;;;12.46;54.69;95818.16;4993565;28;20029;-83
2023/03/27 05:16:25;;;;;;;7.10;2.75;;;;;;;12.23;55.57;95803.47;4993725;28;20495;-82
2023/03/27 05:18:51;;;;;;;10.30;3.55;;;;;;;12.05;57.08;95807.06;4977261;28;20109;-82
2023/03/27 05:21:16;;;;;;;9.20;3.28;;;;;;;12.03;57.94;95809.88;4977609;28;20042;-82
2023/03/27 05:23:42;;;;;;;8.85;4.30;;;;;;;11.99;58.77;95819.22;4976870;28;20026;-82
2023/03/27 05:26:08;;;;;;;6.43;3.72;;;;;;;12.00;59.91;95820.06;4977424;28;20052;-82
2023/03/27 05:28:34;;;;;;;7.57;4.80;;;;;;;11.72;61.45;95817.31;4993087;28;20038;-83
2023/03/27 05:30:59;;;;;;;13.57;6.22;;;;;;;11.73;60.82;95828.88;5014129;28;20037;-82
2023/03/27 05:33:25;;;;;;;6.95;4.25;;;;;;;11.75;58.49;95790.22;4980848;28;20049;-83
2023/03/27 05:35:51;;;;;;;9.15;5.53;;;;;;;11.84;61.34;95800.06;4980871;28;20030;-83
2023/03/27 05:38:17;;;;;;;14.70;5.68;;;;;;;11.90;59.75;95793.31;4980804;28;20071;-82
2023/03/27 05:40:43;;;;;;;20.52;6.47;;;;;;;11.98;56.37;95785.38;4996042;28;20033;-83
2023/03/27 05:43:09;;;;;;;22.25;7.15;;;;;;;12.02;59.42;95784.09;4997402;28;20172;-84
2023/03/27 05:45:35;;;;;;;11.85;6.30;;;;;;;12.10;57.19;95768.13;4996775;28;20417;-82
2023/03/27 05:48:01;;;;;;;8.40;4.00;;;;;;;12.22;55.10;95756.19;4980956;28;20025;-83
2023/03/27 05:50:31;;;;;;;5.65;2.58;;;;;;;12.30;52.74;95732.19;4980504;28;20025;-83
2023/03/27 05:53:06;;;;;;;14.93;5.03;;;;;;;12.97;54.00;95757.69;4996962;28;20029;-83
2023/03/27 05:55:32;;;;;;;18.92;6.70;;;;;;;14.13;51.72;95763.59;4997017;28;20410;-81
2023/03/27 05:57:58;;;;;;;77.32;20.88;;;;;;;15.61;49.94;95763.66;4981199;28;20029;-82
2023/03/27 06:00:25;;;;;;;71.93;17.55;;;;;;;17.31;45.18;95744.09;4997807;28;20061;-83
2023/03/27 06:02:58;;;;;;;26.48;11.50;;;;;;;18.59;40.88;95700.53;4977560;28;20044;-83
2023/03/27 06:05:28;;;;;;;8.55;4.50;;;;;;;19.41;39.28;95701.03;4994961;28;20497;-82
2023/03/27 06:07:54;;;;;;;9.52;4.40;;;;;;;19.61;39.79;95684.91;4980928;28;20033;-83
2023/03/27 06:10:20;;;;;;;57.42;28.17;;;;;;;18.96;40.99;95672.41;4981066;28;20401;-83
2023/03/27 06:12:49;;;;;;;5.72;2.67;;;;;;;19.68;37.82;95616.13;4997046;28;20040;-82
2023/03/27 06:15:15;;;;;;;36.47;16.30;;;;;;;21.29;36.82;95641.66;4981570;28;20589;-82
2023/03/27 06:17:42;;;;;;;24.58;9.15;;;;;;;20.91;36.09;95599.78;4980582;28;20061;-83
2023/03/27 06:20:13;;;;;;;13.70;4.68;;;;;;;22.41;34.79;95614.31;4998830;28;20028;-82
2023/03/27 06:22:50;;;;;;;21.77;5.28;;;;;;;22.47;34.73;95608.00;4999479;28;20486;-82
2023/03/27 06:25:17;;;;;;;16.85;7.18;;;;;;;22.48;34.51;95609.69;4981367;28;20401;-82
2023/03/27 06:27:44;;;;;;;14.95;6.25;;;;;;;21.37;35.35;95561.75;4983975;28;20391;-82
2023/03/27 06:30:11;;;;;;;13.75;3.55;;;;;;;21.84;34.78;95564.19;4982049;28;20054;-82
2023/03/27 06:32:57;;;;;;;14.77;4.55;;;;;;;23.91;32.46;95579.75;4982516;28;20417;-81
2023/03/27 06:35:24;;;;;;;10.32;3.28;;;;;;;24.13;31.14;95550.13;4981610;28;20112;-82
2023/03/27 06:37:51;;;;;;;24.42;10.90;;;;;;;22.25;33.59;95520.28;4980014;28;20026;-81
2023/03/27 06:40:21;;;;;;;6.00;3.45;;;;;;;21.30;33.77;95522.84;4983055;28;20017;-83
2023/03/27 06:43:02;;;;;;;9.75;3.78;;;;;;;21.78;33.64;95545.97;4982382;28;20032;-83
2023/03/27 06:45:30;;;;;;;12.27;4.65;;;;;;;23.58;31.76;95571.03;4982188;28;20021;-83
2023/03/27 06:47:58;;;;;;;5.10;3.17;;;;;;;23.83;31.36;95558.19;4998785;28;20049;-82
2023/03/27 06:50:26;;;;;;;5.22;2.92;;;;;;;25.18;28.84;95548.69;4981649;28;20030;-84
2023/03/27 06:52:52;;;;;;;3.85;2.33;;;;;;;24.60;28.79;95512.94;4980927;28;20470;-82
2023/03/27 06:55:19;;;;;;;3.42;2.60;;;;;;;24.74;29.60;95530.81;4980542;28;20033;-81
2023/03/27 06:57:53;;;;;;;6.10;4.18;;;;;;;24.02;30.38;95497.06;4980231;28;20026;-81
2023/03/27 07:00:21;;;;;;;7.95;2.50;;;;;;;22.38;32.16;95482.09;4980018;28;20155;-83
2023/03/27 07:02:48;;;;;;;8.25;2.40;;;;;;;21.15;33.55;95485.00;4980749;28;20100;-80
2023/03/27 07:05:15;;;;;;;7.45;2.40;;;;;;;20.53;34.49;95479.94;4983816;28;20029;-83
2023/03/27 07:07:41;;;;;;;5.70;3.42;;;;;;;20.13;34.93;95467.28;4983950;28;20131;-83
2023/03/27 07:10:08;;;;;;;3.80;2.70;;;;;;;19.56;35.95;95455.00;4974148;28;20098;-81
2023/03/27 07:12:34;;;;;;;4.70;3.25;;;;;;;20.69;35.34;95493.13;4979588;28;20038;-83
2023/03/27 07:15:00;;;;;;;4.65;2.63;;;;;;;21.97;33.21;95489.81;4979739;28;20033;-82
2023/03/27 07:17:25;;;;;;;13.27;8.27;;;;;;;22.50;32.71;95504.03;4995401;28;20033;-83
2023/03/27 07:19:52;;;;;;;4.90;3.05;;;;;;;22.56;32.57;95494.97;4978042;28;20034;-83
2023/03/27 07:22:18;;;;;;;2.95;2.20;;;;;;;22.94;31.88;95501.25;4975850;28;20105;-83
2023/03/27 07:24:44;;;;;;;3.03;2.38;;;;;;;22.74;32.25;95494.25;4993027;28;20070;-83
2023/03/27 07:27:09;;;;;;;11.15;3.08;;;;;;;23.64;31.69;95502.72;4978749;28;20061;-81
2023/03/27 07:29:35;;;;;;;4.70;2.50;;;;;;;24.42;30.70;95515.72;4979243;28;20033;-82
2023/03/27 07:32:02;;;;;;;4.15;2.58;;;;;;;25.20;29.78;95508.25;4978770;28;20114;-82
2023/03/27 07:34:28;;;;;;;3.13;2.63;;;;;;;25.41;29.29;95512.34;4994841;28;20041;-81
2023/03/27 07:36:56;;;;;;;8.68;2.63;;;;;;;25.29;29.84;95506.81;4978612;28;20065;-82
2023/03/27 07:39:22;;;;;;;3.50;2.55;;;;;;;25.24;29.83;95521.22;4979029;28;20041;-82
2023/03/27 07:41:47;;;;;;;17.40;3.08;;;;;;;24.33;29.82;95493.34;4994948;28;20033;-81
2023/03/27 07:44:13;;;;;;;5.88;2.15;;;;;;;24.30;30.23;95504.72;4987994;28;20029;-82
2023/03/27 07:46:38;;;;;;;3.58;2.55;;;;;;;23.58;31.51;95497.34;4995280;28;20412;-82
2023/03/27 07:49:04;;;;;;;6.43;2.90;;;;;;;23.63;31.41;95500.22;4994498;28;20068;-81
2023/03/27 07:51:30;;;;;;;3.78;2.58;;;;;;;24.20;30.62;95513.47;4975060;28;20042;-82
2023/03/27 07:53:57;;;;;;;3.67;1.77;;;;;;;23.30;31.63;95475.13;4994540;28;20034;-82
2023/03/27 07:56:23;;;;;;;3.05;2.08;;;;;;;22.13;33.25;95475.72;4995435;28;20030;-83
2023/03/27 07:58:50;;;;;;;4.50;2.63;;;;;;;20.98;35.58;95467.41;4995205;28;20034;-81
2023/03/27 08:01:16;;;;;;;3.22;2.53;;;;;;;20.42;36.48;95472.41;4995088;28;20030;-82
2023/03/27 08:03:42;;;;;;;3.58;2.45;;;;;;;20.22;37.03;95485.91;4994781;28;20029;-83
2023/03/27 08:06:08;;;;;;;6.32;2.80;;;;;;;20.98;36.86;95517.16;4978352;28;20104;-83
2023/03/27 08:08:34;;;;;;;6.82;2.15;;;;;;;21.00;35.48;95501.50;4994727;28;20485;-82
2023/03/27 08:11:01;;;;;;;3.28;2.70;;;;;;;20.71;37.04;95501.88;4978364;28;20033;-82
2023/03/27 08:13:27;;;;;;;4.68;2.47;;;;;;;20.36;37.72;95497.66;4994606;28;20029;-82
2023/03/27 08:16:09;;;;;;;4.00;2.50;;;;;;;20.39;37.37;95486.41;4989994;28;20030;-81
2023/03/27 08:18:38;;;;;;;3.47;2.30;;;;;;;20.00;37.52;95487.06;4986619;28;20117;-82
2023/03/27 08:21:04;;;;;;;3.25;2.30;;;;;;;19.91;36.86;95467.44;4978618;28;20095;-83
2023/03/27 08:23:32;;;;;;;3.40;2.50;;;;;;;19.94;37.48;95467.03;4978431;28;20477;-81
2023/03/27 08:25:59;;;;;;;3.90;2.42;;;;;;;20.06;36.59;95471.88;4995073;28;20022;-82
2023/03/27 08:28:33;;;;;;;3.17;2.35;;;;;;;19.87;37.46;95460.72;4978816;28;20125;-80
2023/03/27 08:30:59;;;;;;;2.17;1.52;;;;;;;19.43;37.44;95438.66;4977954;28;20026;-81
2023/03/27 08:33:26;;;;;;;3.30;2.40;;;;;;;19.29;38.11;95443.13;4978157;28;20076;-83
2023/03/27 08:35:52;;;;;;;4.20;2.40;;;;;;;19.03;39.02;95432.13;4978623;28;20033;-83
2023/03/27 08:38:18;;;;;;;2.88;2.05;;;;;;;18.91;38.06;95420.19;4978706;28;20044;-82
2023/03/27 08:40:49;;;;;;;5.13;2.92;;;;;;;18.91;38.58;95420.19;4978489;28;20026;-83
2023/03/27 08:43:25;;;;;;;3.65;2.40;;;;;;;18.77;39.74;95424.66;4977077;28;20060;-82
2023/03/27 08:45:52;;;;;;;5.80;2.45;;;;;;;18.76;39.55;95424.88;4994466;28;20095;-82
2023/03/27 08:49:03;;;;;;;4.47;2.80;;;;;;;18.74;40.15;95435.88;4977947;28;20053;-82
2023/03/27 08:51:39;;;;;;;3.85;2.22;;;;;;;18.69;39.03;95407.72;4881827;29;20036;-84
2023/03/27 08:54:25;;;;;;;4.75;3.20;;;;;;;18.73;40.62;95431.50;4989177;28;20030;-82
2023/03/27 08:56:51;;;;;;;3.70;2.83;;;;;;;18.68;41.26;95431.25;4994015;28;20121;-83
2023/03/27 08:59:21;;;;;;;6.05;2.55;;;;;;;18.61;41.38;95430.34;4995063;28;20113;-82
2023/03/27 09:02:07;;;;;;;4.22;2.85;;;;;;;18.46;41.26;95424.16;4994007;28;20030;-82
2023/03/27 09:05:06;;;;;;;4.80;2.95;;;;;;;18.43;42.05;95432.66;4973997;28;20108;-81
2023/03/27 09:07:50;;;;;;;5.10;3.17;;;;;;;18.50;41.50;95421.94;5004004;28;20029;-81
2023/03/27 09:10:32;;;;;;;4.53;2.90;;;;;;;18.30;41.85;95414.44;4978461;28;20033;-80
2023/03/27 09:13:03;;;;;;;16.83;10.05;;;;;;;18.22;42.48;95430.81;5000573;28;20092;-83
2023/03/27 09:15:37;;;;;;;8.15;3.17;;;;;;;18.11;42.73;95428.66;5000997;28;20113;-81
2023/03/27 09:18:16;;;;;;;4.53;2.70;;;;;;;18.03;43.28;95441.44;4999635;28;20085;-81
2023/03/27 09:20:43;;;;;;;4.35;2.78;;;;;;;17.81;43.62;95454.94;4997737;28;20025;-82
2023/03/27 09:23:34;;;;;;;4.80;2.90;;;;;;;17.67;44.61;95463.94;4997502;28;20026;-81
2023/03/27 09:26:05;;;;;;;10.30;4.85;;;;;;;16.96;48.61;95479.97;4995483;28;20030;-82
2023/03/27 09:28:37;;;;;;;2.38;1.80;;;;;;;16.16;53.02;95488.56;4981344;28;20029;-81
2023/03/27 09:31:19;;;;;;;3.38;2.40;;;;;;;15.96;58.63;95502.72;4997383;28;20034;-80
2023/03/27 09:33:45;;;;;;;3.00;2.25;;;;;;;15.78;63.57;95510.25;4980644;28;20509;-82
2023/03/27 09:36:11;;;;;;;2.65;2.17;;;;;;;15.88;63.25;95521.63;4996997;28;20065;-83
2023/03/27 09:38:40;;;;;;;3.72;2.38;;;;;;;16.28;59.59;95518.66;4997139;28;20033;-82
2023/03/27 09:41:32;;;;;;;2.70;1.60;;;;;;;16.82;53.56;95511.34;4982554;28;20022;-82
2023/03/27 09:44:09;;;;;;;6.13;2.85;;;;;;;17.41;52.04;95514.91;4980834;28;20044;-81
2023/03/27 09:46:37;;;;;;;11.93;4.03;;;;;;;17.59;51.85;95511.88;4980864;28;20093;-82
2023/03/27 09:49:13;;;;;;;4.30;2.45;;;;;;;17.76;48.41;95503.38;4990996;28;20038;-83
2023/03/27 09:51:42;;;;;;;5.43;2.33;;;;;;;17.64;47.59;95485.94;4981392;28;20527;-82
2023/03/27 09:54:08;;;;;;;6.95;4.00;;;;;;;17.50;48.26;95484.09;4997383;28;20064;-81
2023/03/27 09:57:02;;;;;;;4.80;3.40;;;;;;;17.29;48.69;95474.00;4997484;28;20053;-81
2023/03/27 09:59:39;;;;;;;3.70;2.85;;;;;;;17.26;48.25;95478.94;4991763;28;20463;-80
2023/03/27 10:02:26;;;;;;;8.02;3.58;;;;;;;17.23;48.74;95499.06;4974922;28;20030;-80
2023/03/27 10:05:01;;;;;;;14.60;7.80;;;;;;;17.20;48.97;95512.13;4996763;28;20048;-81
2023/03/27 10:07:27;;;;;;;7.10;3.33;;;;;;;17.16;49.08;95508.13;4996691;28;20085;-81
2023/03/27 10:10:24;;;;;;;5.90;3.25;;;;;;;17.13;50.01;95512.03;4996795;28;20026;-81
2023/03/27 10:12:54;;;;;;;5.88;3.33;;;;;;;17.16;50.31;95521.63;4961244;28;20099;-81
2023/03/27 10:15:35;;;;;;;7.72;3.58;;;;;;;17.28;49.59;95507.50;4979728;28;20069;-81
2023/03/27 10:18:05;;;;;;;7.93;5.10;;;;;;;17.54;50.16;95520.50;4978478;28;20113;-81
2023/03/27 10:20:31;;;;;;;5.72;3.65;;;;;;;17.67;48.93;95507.22;4980321;28;20065;-82
2023/03/27 10:23:01;;;;;;;3.50;2.97;;;;;;;17.53;50.02;95494.53;4965821;28;20030;-83
2023/03/27 10:25:37;;;;;;;7.07;3.53;;;;;;;17.88;49.22;95503.72;4981155;28;20038;-82
2023/03/27 10:28:43;;;;;;;9.52;3.67;;;;;;;18.23;48.28;95507.44;4981107;28;20030;-82
2023/03/27 10:31:30;;;;;;;6.28;3.42;;;;;;;18.24;48.27;95522.66;4982532;28;20033;-83
2023/03/27 10:33:59;;;;;;;7.07;3.10;;;;;;;18.38;46.97;95517.19;4979481;28;20622;-81
2023/03/27 10:36:25;;;;;;;3.80;2.90;;;;;;;18.58;45.96;95516.59;4979760;28;20418;-82
2023/03/27 10:38:57;;;;;;;4.30;2.90;;;;;;;18.60;45.47;95509.94;4979500;28;20125;-81
2023/03/27 10:41:24;;;;;;;5.20;3.10;;;;;;;18.75;45.24;95517.97;4996115;28;20037;-83
2023/03/27 10:43:51;;;;;;;4.70;3.00;;;;;;;18.47;46.61;95512.47;4978522;28;20100;-82
2023/03/27 10:46:25;;;;;;;4.55;3.40;;;;;;;17.84;50.83;95533.00;4996375;28;20112;-80
2023/03/27 10:49:11;;;;;;;8.18;3.78;;;;;;;17.48;52.64;95544.75;4980094;28;20389;-81
2023/03/27 10:52:14;;;;;;;7.45;3.90;;;;;;;17.45;53.89;95559.47;4992224;28;20037;-82
2023/03/27 10:55:01;;;;;;;4.18;3.08;;;;;;;17.52;52.72;95559.56;4995943;28;20032;-81
2023/03/27 10:57:33;;;;;;;6.50;4.18;;;;;;;17.56;56.55;95553.66;4990708;28;20029;-82
2023/03/27 11:00:17;;;;;;;3.80;2.47;;;;;;;17.42;53.79;95543.63;4995884;28;20018;-82
2023/03/27 11:03:13;;;;;;;5.22;2.35;;;;;;;17.26;51.05;95522.19;4995680;28;20033;-82
2023/03/27 11:05:45;;;;;;;4.57;2.28;;;;;;;17.23;51.24;95547.72;4995879;28;20103;-83
2023/03/27 11:08:34;;;;;;;4.22;2.80;;;;;;;16.94;54.70;95553.09;4995910;28;20397;-83
2023/03/27 11:11:12;;;;;;;5.32;2.50;;;;;;;16.60;57.14;95569.75;4995909;28;20030;-83
2023/03/27 11:13:40;;;;;;;30.60;17.27;;;;;;;16.65;58.20;95564.63;4980155;28;20461;-83
2023/03/27 11:16:20;;;;;;;5.43;3.20;;;;;;;16.66;59.45;95577.13;4995606;28;20482;-81
2023/03/27 11:19:09;;;;;;;11.60;6.63;;;;;;;16.36;61.09;95574.44;4996200;28;20029;-83
2023/03/27 11:21:44;;;;;;;5.32;3.22;;;;;;;16.23;60.54;95548.03;4995397;28;20500;-83
2023/03/27 11:24:17;;;;;;;8.13;4.10;;;;;;;16.50;64.51;95565.56;4980052;28;20033;-82
2023/03/27 11:26:52;;;;;;;6.75;2.97;;;;;;;16.69;63.99;95532.72;4976193;28;20054;-83
2023/03/27 11:29:27;;;;;;;8.35;2.35;;;;;;;16.65;61.48;95501.69;4979612;28;20041;-82
2023/03/27 11:31:54;;;;;;;4.57;2.95;;;;;;;16.67;61.42;95486.19;4995361;28;20029;-83
2023/03/27 11:34:27;;;;;;;4.82;3.00;;;;;;;16.91;60.56;95494.03;4995080;28;20042;-82
2023/03/27 11:37:38;;;;;;;5.90;3.13;;;;;;;16.83;58.27;95482.50;5012333;28;20374;-83
2023/03/27 11:40:16;;;;;;;8.30;3.60;;;;;;;16.74;58.86;95477.16;4951177;28;20481;-83
2023/03/27 11:42:43;;;;;;;4.70;3.40;;;;;;;16.79;59.84;95477.44;5012805;28;20030;-83
2023/03/27 11:45:15;;;;;;;4.50;3.03;;;;;;;16.89;58.99;95479.06;4995152;28;20100;-83
2023/03/27 11:48:05;;;;;;;6.25;3.70;;;;;;;16.65;62.76;95501.69;4995364;28;20057;-83
2023/03/27 11:50:34;;;;;;;6.32;3.90;;;;;;;16.48;65.66;95511.78;5012208;28;20442;-83
2023/03/27 11:53:32;;;;;;;5.78;3.33;;;;;;;15.99;69.24;95514.00;4994833;28;20029;-83
2023/03/27 11:56:00;;;;;;;3.83;2.78;;;;;;;15.98;71.72;95528.47;4958511;28;20034;-83
2023/03/27 11:58:31;;;;;;;6.28;3.10;;;;;;;16.02;71.55;95545.16;4995140;28;20080;-83
2023/03/27 12:01:18;;;;;;;6.50;3.35;;;;;;;15.94;72.78;95550.56;4994915;28;20022;-82
2023/03/27 12:03:52;;;;;;;9.30;4.13;;;;;;;15.79;74.06;95557.72;4995281;28;20037;-82
2023/03/27 12:06:32;;;;;;;13.20;5.32;;;;;;;15.70;76.37;95579.34;4994928;28;20033;-83
2023/03/27 12:09:09;;;;;;;17.92;6.45;;;;;;;15.46;78.08;95592.88;4978734;28;20508;-80
2023/03/27 12:11:45;;;;;;;24.13;12.30;;;;;;;15.32;80.40;95608.91;4975303;28;20054;-81
2023/03/27 12:14:25;;;;;;;12.52;6.47;;;;;;;15.13;82.32;95610.94;4959289;28;20034;-82
2023/03/27 12:17:20;;;;;;;11.60;4.63;;;;;;;15.01;83.98;95633.00;4977577;28;20028;-80
2023/03/27 12:20:09;;;;;;;8.75;3.97;;;;;;;14.89;85.40;95640.56;4963813;28;20402;-81
2023/03/27 12:22:41;;;;;;;6.97;2.85;;;;;;;14.57;91.13;95664.78;4970464;28;20030;-81
2023/03/27 12:25:33;;;;;;;3.65;2.42;;;;;;;14.01;99.99;95677.00;4976771;28;20489;-83
2023/03/27 12:28:11;;;;;;;;;;;;;;;13.53;100.00;95712.50;4992912;28;20125;-82
2023/03/27 12:30:55;;;;;;;3.15;2.65;;;;;;;13.09;100.00;95718.91;4992756;28;19969;-84
2023/03/27 12:33:26;;;;;;;5.32;2.80;;;;;;;12.85;100.00;95716.00;4974914;28;20056;-81
2023/03/27 12:35:54;;;;;;;4.78;2.65;;;;;;;12.64;100.00;95710.09;4974818;28;20475;-82
2023/03/27 12:38:30;;;;;;;16.60;8.80;;;;;;;12.68;100.00;95727.53;4973387;28;20022;-81
2023/03/27 12:41:12;;;;;;;23.80;11.65;;;;;;;12.50;100.00;95728.38;4974115;28;20041;-79
2023/03/27 12:43:42;;;;;;;;;;;;;;;12.52;100.00;95739.78;4992745;28;20054;-82
2023/03/27 12:46:15;;;;;;;6.22;3.53;;;;;;;12.45;100.00;95745.94;4974834;28;20304;-81
2023/03/27 12:48:53;;;;;;;0.77;0.40;;;;;;;12.26;100.00;95759.44;4974513;28;20501;-80
2023/03/27 12:51:34;;;;;;;1.00;0.77;;;;;;;12.16;100.00;95762.16;4991334;28;20109;-82
2023/03/27 12:54:12;;;;;;;0.88;0.77;;;;;;;12.09;100.00;95777.13;4958149;28;20105;-80
2023/03/27 12:56:37;;;;;;;1.27;0.60;;;;;;;11.82;100.00;95759.19;4974045;28;20026;-80
2023/03/27 12:59:17;;;;;;;0.90;0.47;;;;;;;11.61;100.00;95755.84;4958013;28;20508;-78
2023/03/27 13:01:43;;;;;;;0.73;0.47;;;;;;;11.53;100.00;95760.25;4958015;28;20478;-79
2023/03/27 13:04:14;;;;;;;0.13;0.13;;;;;;;11.33;100.00;95754.94;4973697;28;20101;-79
2023/03/27 13:06:51;;;;;;;2.13;1.17;;;;;;;11.17;100.00;95753.81;4973870;28;20034;-80
2023/03/27 13:09:30;;;;;;;0.22;0.22;;;;;;;11.14;100.00;95764.81;4973671;28;20482;-80
2023/03/27 13:12:11;;;;;;;0.30;0.30;;;;;;;11.13;100.00;95776.53;4974203;28;20031;-81
2023/03/27 13:14:43;;;;;;;0.20;0.20;;;;;;;11.08;100.00;95746.66;4991331;28;20026;-80
2023/03/27 13:17:37;;;;;;;0.25;0.25;;;;;;;11.03;100.00;95747.09;4953105;28;20474;-81
2023/03/27 13:20:36;;;;;;;5.35;0.85;;;;;;;11.05;100.00;95736.22;4990996;28;20104;-81
2023/03/27 13:23:16;;;;;;;1.20;0.90;;;;;;;11.13;100.00;95726.53;4950342;28;20098;-81
2023/03/27 13:25:58;;;;;;;0.20;0.20;;;;;;;11.29;100.00;95673.22;4991425;28;20035;-81
2023/03/27 13:28:29;;;;;;;3.13;0.88;;;;;;;11.26;100.00;95643.25;4973705;28;20073;-81
2023/03/27 13:30:56;;;;;;;0.13;0.13;;;;;;;11.27;100.00;95650.28;4957266;28;20033;-83
2023/03/27 13:33:23;;;;;;;0.20;0.20;;;;;;;11.31;100.00;95652.53;4957801;28;20143;-80
2023/03/27 13:35:58;;;;;;;0.22;0.22;;;;;;;11.39;100.00;95639.25;4973923;28;20037;-82
2023/03/27 13:38:51;;;;;;;0.05;0.05;;;;;;;11.52;100.00;95616.66;4957347;28;20037;-81
2023/03/27 13:41:44;;;;;;;0.38;0.38;;;;;;;11.68;100.00;95595.44;4971845;28;20022;-80
2023/03/27 13:44:26;;;;;;;0.80;0.80;;;;;;;11.77;100.00;95591.91;4973496;28;20026;-80
2023/03/27 13:47:07;;;;;;;3.65;0.77;;;;;;;12.10;100.00;95585.88;4973591;28;20034;-79
2023/03/27 13:49:51;;;;;;;0.43;0.30;;;;;;;12.19;100.00;95589.47;4973601;28;20498;-80
2023/03/27 13:52:26;;;;;;;4.45;1.17;;;;;;;12.39;100.00;95591.03;4977255;28;20405;-81
2023/03/27 13:55:18;;;;;;;2.22;1.52;;;;;;;12.59;100.00;95597.03;4994412;28;20117;-80
2023/03/27 13:58:03;;;;;;;1.13;0.65;;;;;;;12.84;100.00;95612.34;4994361;28;20057;-81
2023/03/27 14:00:56;;;;;;;0.55;0.55;;;;;;;12.90;100.00;95595.63;4957460;28;20027;-80
2023/03/27 14:03:59;;;;;;;0.40;0.40;;;;;;;12.87;100.00;95590.56;4969712;28;20525;-81
2023/03/27 14:06:50;;;;;;;0.30;0.30;;;;;;;12.85;99.20;95597.94;4976615;28;20421;-81
2023/03/27 14:09:15;;;;;;;0.20;0.20;;;;;;;12.92;99.68;95620.47;4976479;28;20030;-79
2023/03/27 14:12:04;;;;;;;2.22;0.68;;;;;;;12.98;100.00;95644.00;4976901;28;20057;-79
2023/03/27 14:14:40;;;;;;;0.75;0.43;;;;;;;13.05;100.00;95655.75;4960253;28;20038;-80
2023/03/27 14:17:30;;;;;;;0.80;0.10;;;;;;;13.18;100.00;95669.66;4959249;28;20089;-81
2023/03/27 14:20:10;;;;;;;0.10;0.10;;;;;;;13.25;100.00;95669.88;4957679;28;20510;-80
2023/03/27 14:22:52;;;;;;;0.57;0.30;;;;;;;13.14;98.37;95672.81;4957650;28;20035;-79
2023/03/27 14:25:23;;;;;;;1.55;0.52;;;;;;;13.17;97.55;95675.16;4976364;28;20034;-79
2023/03/27 14:27:58;;;;;;;1.75;0.95;;;;;;;13.18;100.00;95676.88;4956130;28;20035;-79
2023/03/27 14:30:26;;;;;;;0.40;0.40;;;;;;;13.42;100.00;95688.63;4955092;28;20031;-83
2023/03/27 14:32:54;;;;;;;0.47;0.47;;;;;;;13.43;94.48;95658.09;4955068;28;20061;-80
2023/03/27 14:35:35;;;;;;;1.55;1.40;;;;;;;13.45;91.76;95649.84;4957777;28;20630;-79
2023/03/27 14:38:25;;;;;;;5.13;2.95;;;;;;;13.47;95.20;95639.81;4958418;28;20120;-79
2023/03/27 14:41:00;;;;;;;1.30;0.63;;;;;;;13.55;94.75;95646.06;4960803;28;20030;-80
2023/03/27 14:43:27;;;;;;;1.80;0.40;;;;;;;13.57;89.89;95621.72;4951425;28;20049;-79
2023/03/27 14:45:56;;;;;;;0.15;0.15;;;;;;;13.80;91.78;95632.75;4973835;28;20023;-79
2023/03/27 14:48:30;;;;;;;16.13;1.67;;;;;;;13.88;88.71;95633.63;4959096;28;20339;-79
2023/03/27 14:51:00;;;;;;;1.02;0.65;;;;;;;13.72;88.97;95632.72;4973553;28;20033;-76
2023/03/27 14:53:30;;;;;;;0.75;0.63;;;;;;;13.38;86.04;95617.41;4973599;28;20023;-78
2023/03/27 14:55:59;;;;;;;0.30;0.30;;;;;;;13.21;82.45;95620.19;4957661;28;20108;-79
2023/03/27 14:58:25;;;;;;;0.08;0.08;;;;;;;13.07;82.97;95612.69;4950559;28;20034;-78
2023/03/27 15:00:53;;;;;;;3.45;1.60;;;;;;;13.22;84.82;95628.09;4973922;28;20382;-79
2023/03/27 15:03:23;;;;;;;0.47;0.32;;;;;;;13.23;81.84;95626.22;4956368;28;20060;-78
2023/03/27 15:06:03;;;;;;;0.90;0.50;;;;;;;13.16;80.76;95626.03;4973815;28;20027;-78
2023/03/27 15:08:35;;;;;;;0.08;0.08;;;;;;;13.18;81.59;95629.38;4973399;28;20041;-79
2023/03/27 15:11:01;;;;;;;0.50;0.30;;;;;;;12.99;75.95;95622.34;4973918;28;20472;-80
2023/03/27 15:13:34;;;;;;;0.28;0.20;;;;;;;12.88;78.76;95613.72;4955924;28;20031;-80
2023/03/27 15:15:59;;;;;;;;;;;;;;;12.79;78.45;95604.78;4959451;28;20031;-79
2023/03/27 15:19:11;;;;;;;0.50;0.30;;;;;;;12.63;79.54;95593.91;4974369;28;19925;-79
2023/03/27 15:21:56;;;;;;;0.30;0.30;;;;;;;12.75;78.62;95584.63;4914267;28;20485;-79
2023/03/27 15:24:43;;;;;;;0.43;0.43;;;;;;;12.80;78.43;95578.75;4957389;28;20049;-81
2023/03/27 15:27:41;;;;;;;0.10;0.10;;;;;;;12.89;78.24;95589.41;4974120;28;20049;-81
2023/03/27 15:30:36;;;;;;;0.40;0.40;;;;;;;12.91;77.13;95591.94;4974347;28;20037;-77
2023/03/27 15:33:03;;;;;;;0.20;0.20;;;;;;;12.83;74.06;95581.13;4974789;28;20521;-77
2023/03/27 15:35:32;;;;;;;0.95;0.40;;;;;;;12.92;76.88;95613.22;4956965;28;20050;-78
2023/03/27 15:37:58;;;;;;;0.10;0.10;;;;;;;12.78;76.75;95611.13;4972999;28;20034;-78
2023/03/27 15:40:32;;;;;;;0.00;0.00;;;;;;;12.76;78.97;95620.34;4972739;28;20033;-79
2023/03/27 15:43:14;;;;;;;0.08;0.08;;;;;;;12.75;79.93;95624.00;4955649;28;20442;-79
2023/03/27 15:45:52;;;;;;;0.20;0.20;;;;;;;12.69;79.09;95620.09;4972046;28;20092;-78
2023/03/27 15:48:23;;;;;;;0.05;0.05;;;;;;;12.58;81.00;95623.00;4972954;28;20026;-77
2023/03/27 15:50:58;;;;;;;1.83;0.30;;;;;;;12.52;82.65;95621.81;4949648;28;20503;-77
2023/03/27 15:53:30;;;;;;;3.85;0.95;;;;;;;12.54;78.92;95600.22;4955785;28;20034;-78
2023/03/27 15:55:56;;;;;;;;;;;;;;;12.47;82.07;95618.75;4972960;28;20030;-78
2023/03/27 15:58:45;;;;;;;1.05;1.00;;;;;;;12.31;88.18;95629.31;4955927;28;20005;-79
2023/03/27 16:01:16;;;;;;;3.65;1.75;;;;;;;12.16;84.97;95638.88;4956043;28;20030;-78
2023/03/27 16:03:42;;;;;;;0.45;0.43;;;;;;;12.17;82.47;95618.28;4950754;28;20120;-78
2023/03/27 16:06:09;;;;;;;2.35;1.40;;;;;;;12.18;84.93;95614.63;4954713;28;20035;-78
2023/03/27 16:08:37;;;;;;;1.73;1.63;;;;;;;12.04;83.92;95607.94;4960740;28;20521;-80
2023/03/27 16:11:06;;;;;;;0.30;0.30;;;;;;;12.12;86.44;95625.94;4955881;28;20030;-81
2023/03/27 16:13:41;;;;;;;0.10;0.10;;;;;;;12.04;84.55;95615.13;4971485;28;20061;-79
2023/03/27 16:16:26;;;;;;;0.35;0.35;;;;;;;12.13;82.77;95633.81;4949308;28;20069;-79
2023/03/27 16:18:52;;;;;;;1.63;0.75;;;;;;;12.03;86.04;95632.22;4955618;28;20482;-77
2023/03/27 16:21:22;;;;;;;0.45;0.32;;;;;;;11.83;84.83;95618.94;4972968;28;20041;-79
2023/03/27 16:23:47;;;;;;;0.10;0.10;;;;;;;11.80;85.52;95637.97;4956840;28;20058;-78
2023/03/27 16:26:16;;;;;;;0.10;0.10;;;;;;;11.81;85.01;95644.19;4953048;28;20061;-80
2023/03/27 16:28:42;;;;;;;0.13;0.13;;;;;;;11.82;87.09;95654.72;4955492;28;20042;-77
2023/03/27 16:31:12;;;;;;;0.73;0.73;;;;;;;11.87;87.34;95659.66;4956750;28;20034;-78
2023/03/27 16:33:41;;;;;;;8.13;2.90;;;;;;;11.77;90.61;95658.84;4956630;28;20497;-80